Time;durP1;ratioP1;P1;durP2;ratioP2;P2;SDS_P1;SDS_P2;PMS_P1;PMS_P2;Temp;Humidity;BMP_temperature;BMP_pressure;BME280_temperature;BME280_humidity;BME280_pressure;Samples;Min_cycle;Max_cycle;Signal;HPM_P1;HPM_P2
2024/01/18 00:02:16;;;;;;;28.05;14.20;;;;;;;;;;5049799;28;20029;-64
2024/01/18 00:04:41;;;;;;;29.13;14.70;;;;;;;;;;5048091;28;20377;-64
2024/01/18 00:07:07;;;;;;;31.08;14.05;;;;;;;;;;5047844;28;20033;-64
2024/01/18 00:09:33;;;;;;;27.40;14.27;;;;;;;;;;5041568;28;20036;-65
2024/01/18 00:11:58;;;;;;;27.30;14.85;;;;;;;;;;5050082;28;20087;-65
2024/01/18 00:14:23;;;;;;;29.33;14.52;;;;;;;;;;5050724;28;20442;-65
2024/01/18 00:16:49;;;;;;;30.70;14.82;;;;;;;;;;5049003;28;20033;-65
2024/01/18 00:19:14;;;;;;;29.58;15.15;;;;;;;;;;5051265;28;20037;-66
2024/01/18 00:21:40;;;;;;;25.05;14.40;;;;;;;;;;5047037;28;20413;-64
2024/01/18 00:24:06;;;;;;;26.17;14.10;;;;;;;;;;5051759;28;20049;-65
2024/01/18 00:26:32;;;;;;;31.60;14.25;;;;;;;;;;5052441;28;20079;-65
2024/01/18 00:28:59;;;;;;;26.83;15.25;;;;;;;;;;5055354;28;20112;-65
2024/01/18 00:31:25;;;;;;;25.50;13.77;;;;;;;;;;5061235;28;20029;-65
2024/01/18 00:33:50;;;;;;;27.08;14.88;;;;;;;;;;5053457;28;20468;-66
2024/01/18 00:36:15;;;;;;;27.83;14.50;;;;;;;;;;5048891;28;20084;-66
2024/01/18 00:38:41;;;;;;;26.40;14.80;;;;;;;;;;5049585;28;20433;-64
2024/01/18 00:41:06;;;;;;;28.90;14.82;;;;;;;;;;5049906;28;20036;-66
2024/01/18 00:43:31;;;;;;;26.63;14.68;;;;;;;;;;5050594;28;20028;-65
2024/01/18 00:46:03;;;;;;;28.88;15.45;;;;;;;;;;5050075;28;20033;-65
2024/01/18 00:48:28;;;;;;;;;;;;;;;;;;5049873;28;20088;-63
2024/01/18 00:50:53;;;;;;;25.75;13.65;;;;;;;;;;5048172;28;19971;-66
2024/01/18 00:53:19;;;;;;;27.65;15.40;;;;;;;;;;5040453;28;20858;-64
2024/01/18 00:55:44;;;;;;;30.08;15.30;;;;;;;;;;5046253;28;20040;-66
2024/01/18 00:58:09;;;;;;;26.35;14.55;;;;;;;;;;5049124;28;20487;-67
2024/01/18 01:00:35;;;;;;;27.77;14.93;;;;;;;;;;5048303;28;20036;-65
2024/01/18 01:03:00;;;;;;;28.40;15.73;;;;;;;;;;5043519;28;20036;-65
2024/01/18 01:05:26;;;;;;;29.52;15.65;;;;;;;;;;5043689;28;20048;-65
2024/01/18 01:07:51;;;;;;;26.27;14.55;;;;;;;;;;5044663;28;20113;-65
2024/01/18 01:10:17;;;;;;;29.05;15.55;;;;;;;;;;5041536;28;20030;-65
2024/01/18 01:12:42;;;;;;;28.02;15.68;;;;;;;;;;5030491;28;20228;-65
2024/01/18 01:15:08;;;;;;;29.70;15.77;;;;;;;;;;5050362;28;20025;-65
2024/01/18 01:17:33;;;;;;;30.77;15.73;;;;;;;;;;5050555;28;20392;-65
2024/01/18 01:19:59;;;;;;;25.98;14.52;;;;;;;;;;5050554;28;20033;-65
2024/01/18 01:22:24;;;;;;;29.55;15.45;;;;;;;;;;5050133;28;20056;-65
2024/01/18 01:24:49;;;;;;;27.27;15.48;;;;;;;;;;5051083;28;20040;-65
2024/01/18 01:27:15;;;;;;;30.55;15.48;;;;;;;;;;5049973;28;20025;-66
2024/01/18 01:29:40;;;;;;;26.65;15.65;;;;;;;;;;5033398;28;20029;-65
2024/01/18 01:32:05;;;;;;;28.90;16.17;;;;;;;;;;5034449;28;20512;-65
2024/01/18 01:34:31;;;;;;;29.73;16.23;;;;;;;;;;5033936;28;20060;-65
2024/01/18 01:36:56;;;;;;;27.63;15.65;;;;;;;;;;5034656;28;20029;-65
2024/01/18 01:39:21;;;;;;;27.20;15.68;;;;;;;;;;5040744;28;20070;-62
2024/01/18 01:41:47;;;;;;;29.00;16.50;;;;;;;;;;5053967;28;20470;-66
2024/01/18 01:44:12;;;;;;;29.83;16.13;;;;;;;;;;5050177;28;20037;-66
2024/01/18 01:46:38;;;;;;;30.33;16.75;;;;;;;;;;5033453;28;20056;-66
2024/01/18 01:49:05;;;;;;;30.05;16.00;;;;;;;;;;5051830;28;20045;-66
2024/01/18 01:51:51;;;;;;;26.58;15.75;;;;;;;;;;5051419;28;20134;-66
2024/01/18 01:54:20;;;;;;;28.17;15.55;;;;;;;;;;5054174;28;20048;-65
2024/01/18 01:56:49;;;;;;;25.60;15.20;;;;;;;;;;5049730;28;20052;-65
2024/01/18 01:59:16;;;;;;;27.67;15.63;;;;;;;;;;5052102;28;20033;-67
2024/01/18 02:01:44;;;;;;;29.65;16.17;;;;;;;;;;5052313;28;20108;-65
2024/01/18 02:04:10;;;;;;;29.35;15.95;;;;;;;;;;5053027;28;20033;-66
2024/01/18 02:06:36;;;;;;;30.05;16.48;;;;;;;;;;5049589;28;20126;-65
2024/01/18 02:09:03;;;;;;;28.58;17.10;;;;;;;;;;5046891;28;20033;-65
2024/01/18 02:11:29;;;;;;;27.67;16.55;;;;;;;;;;5053111;28;20029;-64
2024/01/18 02:13:54;;;;;;;30.35;15.52;;;;;;;;;;5053007;28;20048;-65
2024/01/18 02:16:21;;;;;;;26.98;16.27;;;;;;;;;;5052683;28;20079;-66
2024/01/18 02:18:47;;;;;;;25.45;15.43;;;;;;;;;;5050306;28;20029;-65
2024/01/18 02:21:13;;;;;;;32.15;16.20;;;;;;;;;;5047783;28;20039;-65
2024/01/18 02:23:40;;;;;;;33.78;16.55;;;;;;;;;;5034792;28;20488;-64
2024/01/18 02:26:06;;;;;;;30.48;17.38;;;;;;;;;;5048319;28;20063;-66
2024/01/18 02:28:31;;;;;;;30.58;16.30;;;;;;;;;;5050921;28;20069;-66
2024/01/18 02:30:57;;;;;;;28.45;16.48;;;;;;;;;;5048538;28;20087;-66
2024/01/18 02:33:22;;;;;;;33.30;17.15;;;;;;;;;;5052415;28;20433;-66
2024/01/18 02:35:49;;;;;;;33.63;16.58;;;;;;;;;;5049102;28;20040;-65
2024/01/18 02:38:15;;;;;;;33.67;17.20;;;;;;;;;;5052164;28;20397;-65
2024/01/18 02:40:40;;;;;;;30.98;16.83;;;;;;;;;;5050548;28;20418;-65
2024/01/18 02:43:06;;;;;;;30.55;16.90;;;;;;;;;;5049627;28;20071;-63
2024/01/18 02:45:32;;;;;;;30.67;17.17;;;;;;;;;;5046502;28;20029;-64
2024/01/18 02:47:57;;;;;;;33.83;17.27;;;;;;;;;;5053272;28;20041;-66
2024/01/18 02:50:22;;;;;;;31.42;17.17;;;;;;;;;;5048452;28;20567;-66
2024/01/18 02:52:48;;;;;;;33.58;17.58;;;;;;;;;;5044076;28;20215;-66
2024/01/18 02:55:14;;;;;;;32.72;17.27;;;;;;;;;;5039376;28;20484;-66
2024/01/18 02:57:41;;;;;;;33.20;17.00;;;;;;;;;;5049043;28;20108;-66
2024/01/18 03:00:07;;;;;;;29.15;16.98;;;;;;;;;;5038474;28;20025;-66
2024/01/18 03:02:32;;;;;;;32.10;17.70;;;;;;;;;;5048368;28;20031;-65
2024/01/18 03:04:57;;;;;;;27.98;16.60;;;;;;;;;;5049515;28;20034;-66
2024/01/18 03:07:23;;;;;;;30.00;17.50;;;;;;;;;;5052493;28;20125;-66
2024/01/18 03:09:48;;;;;;;31.52;17.38;;;;;;;;;;5049628;28;20025;-66
2024/01/18 03:12:13;;;;;;;28.70;16.73;;;;;;;;;;5049866;28;20032;-65
2024/01/18 03:14:39;;;;;;;35.35;16.98;;;;;;;;;;5047944;28;20025;-66
2024/01/18 03:17:04;;;;;;;33.75;17.42;;;;;;;;;;5051127;28;20024;-66
2024/01/18 03:19:29;;;;;;;31.40;17.83;;;;;;;;;;5047744;28;20422;-64
2024/01/18 03:21:55;;;;;;;30.73;18.00;;;;;;;;;;5050050;28;22042;-65
2024/01/18 03:24:20;;;;;;;34.05;18.05;;;;;;;;;;5052443;28;20025;-65
2024/01/18 03:26:46;;;;;;;34.13;18.15;;;;;;;;;;5049357;28;20029;-66
2024/01/18 03:29:11;;;;;;;33.25;18.20;;;;;;;;;;5053323;28;20512;-65
2024/01/18 03:31:36;;;;;;;31.13;16.73;;;;;;;;;;5051610;28;20033;-65
2024/01/18 03:34:02;;;;;;;31.27;18.13;;;;;;;;;;5049077;28;20484;-67
2024/01/18 03:36:27;;;;;;;36.10;18.58;;;;;;;;;;5050640;28;20033;-65
2024/01/18 03:38:53;;;;;;;33.80;18.30;;;;;;;;;;5048029;28;20038;-65
2024/01/18 03:41:18;;;;;;;31.67;18.35;;;;;;;;;;5036535;28;20124;-66
2024/01/18 03:43:43;;;;;;;32.22;18.75;;;;;;;;;;5042062;28;20465;-65
2024/01/18 03:46:15;;;;;;;30.63;17.60;;;;;;;;;;5050880;28;20145;-65
2024/01/18 03:48:40;;;;;;;31.65;17.95;;;;;;;;;;5047584;28;20108;-66
2024/01/18 03:51:06;;;;;;;33.00;18.05;;;;;;;;;;5048714;28;20159;-67
2024/01/18 03:53:32;;;;;;;33.85;18.38;;;;;;;;;;5047557;28;20175;-63
2024/01/18 03:55:57;;;;;;;33.50;18.40;;;;;;;;;;5051980;28;20033;-66
2024/01/18 03:58:22;;;;;;;32.72;18.00;;;;;;;;;;5052425;28;20025;-65
2024/01/18 04:00:48;;;;;;;35.00;18.38;;;;;;;;;;5048593;28;20494;-66
2024/01/18 04:03:13;;;;;;;33.80;17.55;;;;;;;;;;5049156;28;20477;-65
2024/01/18 04:05:38;;;;;;;35.03;19.17;;;;;;;;;;5039491;28;20021;-64
2024/01/18 04:08:04;;;;;;;32.22;18.58;;;;;;;;;;5040971;28;20482;-64
2024/01/18 04:10:30;;;;;;;37.75;18.73;;;;;;;;;;5040202;28;20028;-64
2024/01/18 04:12:55;;;;;;;35.83;18.42;;;;;;;;;;5050456;28;20058;-63
2024/01/18 04:15:21;;;;;;;36.63;19.23;;;;;;;;;;5045499;28;20036;-64
2024/01/18 04:17:47;;;;;;;34.40;18.70;;;;;;;;;;5050860;28;20064;-64
2024/01/18 04:20:16;;;;;;;31.90;18.52;;;;;;;;;;5051650;28;20525;-65
2024/01/18 04:22:43;;;;;;;42.72;18.75;;;;;;;;;;5041561;28;20486;-64
2024/01/18 04:25:09;;;;;;;37.80;18.42;;;;;;;;;;5038996;28;20454;-64
2024/01/18 04:27:34;;;;;;;31.88;18.58;;;;;;;;;;5049771;28;20074;-64
2024/01/18 04:30:00;;;;;;;34.60;18.70;;;;;;;;;;5048850;28;20028;-64
2024/01/18 04:32:25;;;;;;;32.08;17.52;;;;;;;;;;5051481;28;20039;-65
2024/01/18 04:34:51;;;;;;;34.55;18.98;;;;;;;;;;5050688;28;20033;-65
2024/01/18 04:37:16;;;;;;;34.03;18.23;;;;;;;;;;5051645;28;20028;-64
2024/01/18 04:39:42;;;;;;;36.30;18.83;;;;;;;;;;5048493;28;20036;-64
2024/01/18 04:42:10;;;;;;;36.88;19.83;;;;;;;;;;5051238;28;20029;-65
2024/01/18 04:44:36;;;;;;;33.42;18.80;;;;;;;;;;5050646;28;20107;-62
2024/01/18 04:47:01;;;;;;;34.15;19.25;;;;;;;;;;5051507;28;20112;-63
2024/01/18 04:49:27;;;;;;;33.67;19.55;;;;;;;;;;5040982;28;20111;-65
2024/01/18 04:51:52;;;;;;;39.58;20.13;;;;;;;;;;5029214;28;20033;-64
2024/01/18 04:54:17;;;;;;;37.92;19.40;;;;;;;;;;5031457;28;20037;-64
2024/01/18 04:56:43;;;;;;;35.05;19.02;;;;;;;;;;5033320;28;20053;-65
2024/01/18 04:59:08;;;;;;;32.45;19.27;;;;;;;;;;5048972;28;20033;-65
2024/01/18 05:01:38;;;;;;;37.80;19.83;;;;;;;;;;5056715;28;20028;-63
2024/01/18 05:04:04;;;;;;;36.00;19.38;;;;;;;;;;5058403;28;20029;-64
2024/01/18 05:06:30;;;;;;;36.78;19.75;;;;;;;;;;5055592;28;20033;-64
2024/01/18 05:08:55;;;;;;;37.38;18.88;;;;;;;;;;5039070;28;20159;-64
2024/01/18 05:11:21;;;;;;;31.95;18.42;;;;;;;;;;5035749;28;20328;-64
2024/01/18 05:13:46;;;;;;;34.33;19.02;;;;;;;;;;5034373;28;20037;-64
2024/01/18 05:16:12;;;;;;;35.30;19.02;;;;;;;;;;5035364;28;20422;-65
2024/01/18 05:18:37;;;;;;;35.05;19.05;;;;;;;;;;5035170;28;20029;-64
2024/01/18 05:21:03;;;;;;;40.15;19.63;;;;;;;;;;5034954;28;20091;-64
2024/01/18 05:23:28;;;;;;;35.45;19.65;;;;;;;;;;5035094;28;20040;-64
2024/01/18 05:25:53;;;;;;;34.45;19.50;;;;;;;;;;5033431;28;20137;-64
2024/01/18 05:28:19;;;;;;;37.83;19.33;;;;;;;;;;5043796;28;20036;-64
2024/01/18 05:30:44;;;;;;;31.95;17.88;;;;;;;;;;5054164;28;20420;-65
2024/01/18 05:33:10;;;;;;;35.78;19.05;;;;;;;;;;5054464;28;20033;-64
2024/01/18 05:35:35;;;;;;;33.38;19.00;;;;;;;;;;5054556;28;20021;-63
2024/01/18 05:38:01;;;;;;;32.88;19.40;;;;;;;;;;5041005;28;20025;-64
2024/01/18 05:40:26;;;;;;;32.90;18.98;;;;;;;;;;5050264;28;20041;-64
2024/01/18 05:42:51;;;;;;;42.55;19.70;;;;;;;;;;5033850;28;20040;-63
2024/01/18 05:45:17;;;;;;;31.67;18.25;;;;;;;;;;5034761;28;20069;-63
2024/01/18 05:47:42;;;;;;;34.28;18.73;;;;;;;;;;5041924;28;20397;-62
2024/01/18 05:50:08;;;;;;;36.10;19.25;;;;;;;;;;5054497;28;20035;-63
2024/01/18 05:52:34;;;;;;;36.85;19.88;;;;;;;;;;5054533;28;20121;-64
2024/01/18 05:54:59;;;;;;;33.63;18.52;;;;;;;;;;5053671;28;20029;-65
2024/01/18 05:57:25;;;;;;;35.33;19.45;;;;;;;;;;5051981;28;20029;-63
2024/01/18 05:59:50;;;;;;;35.90;19.63;;;;;;;;;;5053523;28;20035;-63
2024/01/18 06:02:16;;;;;;;37.42;19.10;;;;;;;;;;5053816;28;20104;-63
2024/01/18 06:04:41;;;;;;;35.05;20.05;;;;;;;;;;5053341;28;20091;-63
2024/01/18 06:07:07;;;;;;;36.08;19.05;;;;;;;;;;5051473;28;20064;-64
2024/01/18 06:09:32;;;;;;;35.88;20.13;;;;;;;;;;5032967;28;20025;-64
2024/01/18 06:11:57;;;;;;;36.05;20.23;;;;;;;;;;5048597;28;20652;-63
2024/01/18 06:14:23;;;;;;;31.88;18.42;;;;;;;;;;5054062;28;20128;-64
2024/01/18 06:16:48;;;;;;;34.28;19.95;;;;;;;;;;5053055;28;20466;-64
2024/01/18 06:19:13;;;;;;;36.28;20.30;;;;;;;;;;5034599;28;20033;-64
2024/01/18 06:21:39;;;;;;;35.47;19.35;;;;;;;;;;5033022;28;20406;-63
2024/01/18 06:24:05;;;;;;;37.13;19.75;;;;;;;;;;5033568;28;20033;-65
2024/01/18 06:26:30;;;;;;;37.08;19.75;;;;;;;;;;5033864;28;20034;-64
2024/01/18 06:28:56;;;;;;;33.75;20.70;;;;;;;;;;5048751;28;20082;-65
2024/01/18 06:31:26;;;;;;;33.38;19.48;;;;;;;;;;5053808;28;20032;-65
2024/01/18 06:33:56;;;;;;;42.70;21.90;;;;;;;;;;5052659;28;20037;-64
2024/01/18 06:36:22;;;;;;;35.28;19.13;;;;;;;;;;5053197;28;20393;-65
2024/01/18 06:38:49;;;;;;;37.97;19.63;;;;;;;;;;5041762;28;20029;-64
2024/01/18 06:41:14;;;;;;;33.58;19.27;;;;;;;;;;5053385;28;20041;-64
2024/01/18 06:43:40;;;;;;;36.20;20.65;;;;;;;;;;5051337;28;20029;-62
2024/01/18 06:46:13;;;;;;;36.88;20.35;;;;;;;;;;5052918;28;20028;-63
2024/01/18 06:48:39;;;;;;;37.88;20.95;;;;;;;;;;5051211;28;20044;-63
2024/01/18 06:51:04;;;;;;;39.75;20.30;;;;;;;;;;5052853;28;20108;-64
2024/01/18 06:53:29;;;;;;;37.92;20.48;;;;;;;;;;5052078;28;20040;-64
2024/01/18 06:55:55;;;;;;;40.13;20.85;;;;;;;;;;5052350;28;20071;-65
2024/01/18 06:58:20;;;;;;;38.08;21.10;;;;;;;;;;5049906;28;20036;-64
2024/01/18 07:00:47;;;;;;;41.47;21.23;;;;;;;;;;5052309;28;20537;-64
2024/01/18 07:03:13;;;;;;;43.90;23.75;;;;;;;;;;5052878;28;20033;-65
2024/01/18 07:05:38;;;;;;;44.92;22.58;;;;;;;;;;5053092;28;20417;-64
2024/01/18 07:08:05;;;;;;;48.35;23.35;;;;;;;;;;5049919;28;20075;-64
2024/01/18 07:10:31;;;;;;;42.42;22.23;;;;;;;;;;5045441;28;20103;-64
2024/01/18 07:12:56;;;;;;;45.35;22.85;;;;;;;;;;5030571;28;20045;-64
2024/01/18 07:15:21;;;;;;;42.83;21.17;;;;;;;;;;5032782;28;20032;-64
2024/01/18 07:17:47;;;;;;;37.35;21.05;;;;;;;;;;5031684;28;20033;-64
2024/01/18 07:20:12;;;;;;;44.13;21.67;;;;;;;;;;5044900;28;20453;-64
2024/01/18 07:22:38;;;;;;;40.08;21.27;;;;;;;;;;5041779;28;20046;-64
2024/01/18 07:25:05;;;;;;;40.08;21.00;;;;;;;;;;5031808;28;20040;-63
2024/01/18 07:27:31;;;;;;;42.58;22.55;;;;;;;;;;5032918;28;20026;-64
2024/01/18 07:29:56;;;;;;;39.60;21.23;;;;;;;;;;5031639;28;20021;-63
2024/01/18 07:32:22;;;;;;;46.33;23.20;;;;;;;;;;5031450;28;20029;-64
2024/01/18 07:34:48;;;;;;;41.85;22.13;;;;;;;;;;5031961;28;20038;-63
2024/01/18 07:37:14;;;;;;;41.05;22.25;;;;;;;;;;5032667;28;20030;-65
2024/01/18 07:39:44;;;;;;;43.40;21.88;;;;;;;;;;5032315;28;20446;-64
2024/01/18 07:42:09;;;;;;;43.67;21.80;;;;;;;;;;5051160;28;20370;-64
2024/01/18 07:44:35;;;;;;;40.50;22.42;;;;;;;;;;5052124;28;20067;-64
2024/01/18 07:47:00;;;;;;;39.05;21.27;;;;;;;;;;5051670;28;20055;-65
2024/01/18 07:49:26;;;;;;;43.83;21.40;;;;;;;;;;5052176;28;20032;-65
2024/01/18 07:51:51;;;;;;;51.38;23.85;;;;;;;;;;5049436;28;20044;-65
2024/01/18 07:54:17;;;;;;;42.53;22.17;;;;;;;;;;5052295;28;20080;-64
2024/01/18 07:56:42;;;;;;;44.42;23.65;;;;;;;;;;5047181;28;20037;-64
2024/01/18 07:59:08;;;;;;;39.58;22.13;;;;;;;;;;5031519;28;20037;-65
2024/01/18 08:01:34;;;;;;;43.75;23.55;;;;;;;;;;5032397;28;20033;-65
2024/01/18 08:03:59;;;;;;;45.42;22.52;;;;;;;;;;5031657;28;20041;-64
2024/01/18 08:06:25;;;;;;;39.00;20.98;;;;;;;;;;5032489;28;20029;-65
2024/01/18 08:08:50;;;;;;;43.55;23.40;;;;;;;;;;5031347;28;20025;-64
2024/01/18 08:11:16;;;;;;;42.90;22.85;;;;;;;;;;5030674;28;20116;-64
2024/01/18 08:13:41;;;;;;;41.65;21.95;;;;;;;;;;5032043;28;20112;-64
2024/01/18 08:16:07;;;;;;;41.08;22.90;;;;;;;;;;5048940;28;20078;-65
2024/01/18 08:18:33;;;;;;;47.03;22.98;;;;;;;;;;5052022;28;20033;-65
2024/01/18 08:20:59;;;;;;;45.42;22.08;;;;;;;;;;5050948;28;20090;-65
2024/01/18 08:23:25;;;;;;;44.17;21.70;;;;;;;;;;5050403;28;20076;-64
2024/01/18 08:25:50;;;;;;;44.10;22.70;;;;;;;;;;5050763;28;20056;-64
2024/01/18 08:28:17;;;;;;;39.75;22.48;;;;;;;;;;5032208;28;20108;-64
2024/01/18 08:30:44;;;;;;;41.85;22.75;;;;;;;;;;5031920;28;20037;-65
2024/01/18 08:33:10;;;;;;;43.63;23.02;;;;;;;;;;5030726;28;20091;-64
2024/01/18 08:35:35;;;;;;;43.97;23.15;;;;;;;;;;5031565;28;20409;-65
2024/01/18 08:38:01;;;;;;;42.65;22.35;;;;;;;;;;5030092;28;20033;-64
2024/01/18 08:40:26;;;;;;;49.10;23.23;;;;;;;;;;5031588;28;20037;-64
2024/01/18 08:42:52;;;;;;;43.28;23.13;;;;;;;;;;5029627;28;20418;-64
2024/01/18 08:45:20;;;;;;;46.60;23.30;;;;;;;;;;5031628;28;20080;-64
2024/01/18 08:47:47;;;;;;;47.45;23.65;;;;;;;;;;5031421;28;20421;-65
2024/01/18 08:50:15;;;;;;;45.67;24.10;;;;;;;;;;5029755;28;20381;-65
2024/01/18 08:52:41;;;;;;;52.58;25.67;;;;;;;;;;5031589;28;20034;-64
2024/01/18 08:55:06;;;;;;;52.38;26.33;;;;;;;;;;5030793;28;20099;-65
2024/01/18 08:57:31;;;;;;;49.70;26.42;;;;;;;;;;5041732;28;20108;-65
2024/01/18 08:59:57;;;;;;;55.85;28.88;;;;;;;;;;5050937;28;20098;-64
2024/01/18 09:02:22;;;;;;;53.05;28.67;;;;;;;;;;5046703;28;20032;-65
2024/01/18 09:04:47;;;;;;;65.20;31.77;;;;;;;;;;5036853;28;20024;-63
2024/01/18 09:07:13;;;;;;;59.22;30.25;;;;;;;;;;5050367;28;20028;-65
2024/01/18 09:09:38;;;;;;;57.50;30.77;;;;;;;;;;5051515;28;20021;-65
2024/01/18 09:12:04;;;;;;;60.90;30.58;;;;;;;;;;5050397;28;20029;-65
2024/01/18 09:14:29;;;;;;;62.92;30.92;;;;;;;;;;5043112;28;20103;-65
2024/01/18 09:16:55;;;;;;;56.85;31.02;;;;;;;;;;5042197;28;20033;-65
2024/01/18 09:19:20;;;;;;;68.55;32.10;;;;;;;;;;5051426;28;20417;-65
2024/01/18 09:21:46;;;;;;;65.32;32.35;;;;;;;;;;5051215;28;20397;-65
2024/01/18 09:24:13;;;;;;;57.78;31.00;;;;;;;;;;5050398;28;20036;-64
2024/01/18 09:26:38;;;;;;;70.78;32.97;;;;;;;;;;5052364;28;20025;-64
2024/01/18 09:29:03;;;;;;;74.28;36.25;;;;;;;;;;5058014;28;20040;-64
2024/01/18 09:31:29;;;;;;;64.07;31.00;;;;;;;;;;5059449;28;20057;-64
2024/01/18 09:33:54;;;;;;;56.00;29.92;;;;;;;;;;5054384;28;20111;-63
2024/01/18 09:36:20;;;;;;;52.00;28.42;;;;;;;;;;5049396;28;20447;-63
2024/01/18 09:38:46;;;;;;;51.92;26.42;;;;;;;;;;5051082;28;20036;-63
2024/01/18 09:41:15;;;;;;;51.92;26.60;;;;;;;;;;5050386;28;20025;-64
2024/01/18 09:43:42;;;;;;;48.78;24.85;;;;;;;;;;5050896;28;20032;-63
2024/01/18 09:46:10;;;;;;;44.70;24.80;;;;;;;;;;5039388;28;20393;-64
2024/01/18 09:48:36;;;;;;;45.10;23.67;;;;;;;;;;5034794;28;20524;-63
2024/01/18 09:51:04;;;;;;;38.78;21.17;;;;;;;;;;5033741;28;20045;-64
2024/01/18 09:53:30;;;;;;;28.02;14.55;;;;;;;;;;5034568;28;20508;-66
2024/01/18 09:55:59;;;;;;;30.80;15.40;;;;;;;;;;5033328;28;20026;-62
2024/01/18 09:58:25;;;;;;;28.80;14.73;;;;;;;;;;5054298;28;20052;-64
2024/01/18 10:00:58;;;;;;;27.95;14.07;;;;;;;;;;5054482;28;20021;-64
2024/01/18 10:03:24;;;;;;;28.17;15.23;;;;;;;;;;5054511;28;20029;-65
2024/01/18 10:05:50;;;;;;;34.58;17.25;;;;;;;;;;5053642;28;20032;-65
2024/01/18 10:08:15;;;;;;;32.55;15.00;;;;;;;;;;5037429;28;20045;-64
2024/01/18 10:10:42;;;;;;;26.40;14.25;;;;;;;;;;5054018;28;20032;-64
2024/01/18 10:13:11;;;;;;;25.30;12.57;;;;;;;;;;5052952;28;20033;-65
2024/01/18 10:15:36;;;;;;;18.13;10.10;;;;;;;;;;5054049;28;20159;-65
2024/01/18 10:18:03;;;;;;;19.30;9.68;;;;;;;;;;5050310;28;20123;-65
2024/01/18 10:20:29;;;;;;;17.45;9.93;;;;;;;;;;5034124;28;20029;-64
2024/01/18 10:22:58;;;;;;;18.35;9.43;;;;;;;;;;5033396;28;20056;-64
2024/01/18 10:25:26;;;;;;;18.50;9.45;;;;;;;;;;5033852;28;20029;-64
2024/01/18 10:27:56;;;;;;;22.05;10.43;;;;;;;;;;5034029;28;20112;-65
2024/01/18 10:30:22;;;;;;;18.75;10.43;;;;;;;;;;5037296;28;20040;-64
2024/01/18 10:32:48;;;;;;;20.40;10.18;;;;;;;;;;5033865;28;20031;-65
2024/01/18 10:35:24;;;;;;;21.48;10.20;;;;;;;;;;5033073;28;20033;-64
2024/01/18 10:37:59;;;;;;;18.20;10.07;;;;;;;;;;5033939;28;20035;-65
2024/01/18 10:40:25;;;;;;;17.10;9.75;;;;;;;;;;5033450;28;20052;-65
2024/01/18 10:42:50;;;;;;;17.00;10.02;;;;;;;;;;5033614;28;20026;-65
2024/01/18 10:45:16;;;;;;;18.83;10.02;;;;;;;;;;5032638;28;20627;-65
2024/01/18 10:47:42;;;;;;;23.23;11.50;;;;;;;;;;5033984;28;20075;-66
2024/01/18 10:50:08;;;;;;;16.17;8.77;;;;;;;;;;5051128;28;20429;-66
2024/01/18 10:52:37;;;;;;;14.73;8.85;;;;;;;;;;5053299;28;20032;-65
2024/01/18 10:55:07;;;;;;;16.45;7.78;;;;;;;;;;5052153;28;20539;-66
2024/01/18 10:57:32;;;;;;;14.77;8.25;;;;;;;;;;5050896;28;20044;-66
2024/01/18 10:59:59;;;;;;;19.13;8.52;;;;;;;;;;5052462;28;20488;-65
2024/01/18 11:02:24;;;;;;;14.02;8.52;;;;;;;;;;5053168;28;20462;-66
2024/01/18 11:04:52;;;;;;;13.68;7.10;;;;;;;;;;5052867;28;20028;-66
2024/01/18 11:07:18;;;;;;;12.82;7.40;;;;;;;;;;5038052;28;20364;-66
2024/01/18 11:09:44;;;;;;;9.75;5.47;;;;;;;;;;5033046;28;20039;-66
2024/01/18 11:12:13;;;;;;;13.23;6.30;;;;;;;;;;5032369;28;20104;-65
2024/01/18 11:14:39;;;;;;;10.48;5.53;;;;;;;;;;5032956;28;20030;-65
2024/01/18 11:17:12;;;;;;;10.65;5.63;;;;;;;;;;5030908;28;20048;-65
2024/01/18 11:19:42;;;;;;;11.32;5.85;;;;;;;;;;5050071;28;20033;-66
2024/01/18 11:22:10;;;;;;;9.57;5.43;;;;;;;;;;5051659;28;20045;-66
2024/01/18 11:24:37;;;;;;;11.43;5.75;;;;;;;;;;5052508;28;20494;-66
2024/01/18 11:27:16;;;;;;;12.35;6.43;;;;;;;;;;5051727;28;20029;-67
2024/01/18 11:29:41;;;;;;;10.05;6.28;;;;;;;;;;5050237;28;20025;-66
2024/01/18 11:32:12;;;;;;;9.45;6.18;;;;;;;;;;5031768;28;20036;-66
2024/01/18 11:34:38;;;;;;;8.70;5.82;;;;;;;;;;5032569;28;20030;-66
2024/01/18 11:37:14;;;;;;;10.40;5.70;;;;;;;;;;5031740;28;20132;-65
2024/01/18 11:39:52;;;;;;;10.70;6.32;;;;;;;;;;5047168;28;20059;-65
2024/01/18 11:42:28;;;;;;;7.95;5.68;;;;;;;;;;5042029;28;20028;-66
2024/01/18 11:45:00;;;;;;;9.60;6.22;;;;;;;;;;5052501;28;20060;-66
2024/01/18 11:47:31;;;;;;;10.80;6.68;;;;;;;;;;5050884;28;20044;-66
2024/01/18 11:49:57;;;;;;;10.32;5.95;;;;;;;;;;5040406;28;20029;-66
2024/01/18 11:52:23;;;;;;;9.43;6.43;;;;;;;;;;5051681;28;20048;-65
2024/01/18 11:54:55;;;;;;;10.68;6.38;;;;;;;;;;5051716;28;20036;-64
2024/01/18 11:57:22;;;;;;;11.20;6.25;;;;;;;;;;5051621;28;20095;-64
2024/01/18 11:59:47;;;;;;;11.48;6.47;;;;;;;;;;5050128;28;20033;-65
2024/01/18 12:02:14;;;;;;;7.82;5.93;;;;;;;;;;5031377;28;20040;-66
2024/01/18 12:04:39;;;;;;;10.07;6.03;;;;;;;;;;5032172;28;20033;-65
2024/01/18 12:07:06;;;;;;;10.77;6.90;;;;;;;;;;5032243;28;20045;-64
2024/01/18 12:09:32;;;;;;;9.20;5.60;;;;;;;;;;5031930;28;20033;-64
2024/01/18 12:11:59;;;;;;;8.25;6.40;;;;;;;;;;5032152;28;20508;-65
2024/01/18 12:14:25;;;;;;;11.52;7.10;;;;;;;;;;5031364;28;20029;-65
2024/01/18 12:16:51;;;;;;;10.40;7.40;;;;;;;;;;5031704;28;20032;-65
2024/01/18 12:19:33;;;;;;;13.13;7.65;;;;;;;;;;5030980;28;20037;-65
2024/01/18 12:22:04;;;;;;;8.25;6.85;;;;;;;;;;5031849;28;20100;-64
2024/01/18 12:24:31;;;;;;;8.45;7.38;;;;;;;;;;5031968;28;20025;-65
2024/01/18 12:26:56;;;;;;;10.27;7.60;;;;;;;;;;5031606;28;20030;-65
2024/01/18 12:29:22;;;;;;;9.20;7.50;;;;;;;;;;5044683;28;20630;-64
2024/01/18 12:31:49;;;;;;;11.82;7.20;;;;;;;;;;5051637;28;20466;-64
2024/01/18 12:34:17;;;;;;;10.10;7.53;;;;;;;;;;5050986;28;20040;-65
2024/01/18 12:36:43;;;;;;;8.95;7.68;;;;;;;;;;5051718;28;20083;-64
2024/01/18 12:39:09;;;;;;;9.63;7.80;;;;;;;;;;5033708;28;20034;-65
2024/01/18 12:41:34;;;;;;;8.85;7.30;;;;;;;;;;5031858;28;20072;-64
2024/01/18 12:44:09;;;;;;;13.50;7.60;;;;;;;;;;5031838;28;20048;-65
2024/01/18 12:46:39;;;;;;;11.63;7.25;;;;;;;;;;5031718;28;20041;-64
2024/01/18 12:49:05;;;;;;;8.65;7.15;;;;;;;;;;5029555;28;20026;-62
2024/01/18 12:51:31;;;;;;;10.70;7.40;;;;;;;;;;5050029;28;20165;-63
2024/01/18 12:53:57;;;;;;;9.00;6.90;;;;;;;;;;5051352;28;20034;-63
2024/01/18 12:56:23;;;;;;;8.75;6.90;;;;;;;;;;5050674;28;20145;-63
2024/01/18 12:58:48;;;;;;;8.75;7.10;;;;;;;;;;5051623;28;20103;-64
2024/01/18 13:01:28;;;;;;;8.93;7.18;;;;;;;;;;5048034;28;20025;-63
2024/01/18 13:04:15;;;;;;;7.95;6.85;;;;;;;;;;5031472;28;20065;-63
2024/01/18 13:06:46;;;;;;;9.95;7.13;;;;;;;;;;5031433;28;20040;-63
2024/01/18 13:09:16;;;;;;;8.20;7.35;;;;;;;;;;5030920;28;20041;-63
2024/01/18 13:11:43;;;;;;;9.07;7.13;;;;;;;;;;5031559;28;20386;-63
2024/01/18 13:14:11;;;;;;;8.40;6.97;;;;;;;;;;5030122;28;20409;-63
2024/01/18 13:16:42;;;;;;;12.02;7.03;;;;;;;;;;5031463;28;20064;-63
2024/01/18 13:19:10;;;;;;;9.57;7.28;;;;;;;;;;5030623;28;20120;-62
2024/01/18 13:21:36;;;;;;;7.93;6.25;;;;;;;;;;5032435;28;20057;-63
2024/01/18 13:24:02;;;;;;;6.80;6.10;;;;;;;;;;5035331;28;20045;-62
2024/01/18 13:26:29;;;;;;;8.45;6.38;;;;;;;;;;5034520;28;20152;-63
2024/01/18 13:28:55;;;;;;;8.00;6.20;;;;;;;;;;5035201;28;20036;-62
2024/01/18 13:31:21;;;;;;;6.53;5.88;;;;;;;;;;5034315;28;20025;-63
2024/01/18 13:33:46;;;;;;;7.38;6.00;;;;;;;;;;5034853;28;20067;-62
2024/01/18 13:36:12;;;;;;;6.93;6.22;;;;;;;;;;5033975;28;20021;-63
2024/01/18 13:38:39;;;;;;;7.63;6.35;;;;;;;;;;5034532;28;20029;-63
2024/01/18 13:41:05;;;;;;;8.63;6.20;;;;;;;;;;5034659;28;20061;-63
2024/01/18 13:43:31;;;;;;;7.35;6.65;;;;;;;;;;5034252;28;20056;-62
2024/01/18 13:45:57;;;;;;;7.00;6.30;;;;;;;;;;5034461;28;20465;-62
2024/01/18 13:48:22;;;;;;;8.27;6.80;;;;;;;;;;5033896;28;20029;-62
2024/01/18 13:50:48;;;;;;;7.45;6.55;;;;;;;;;;5052051;28;20112;-62
2024/01/18 13:53:16;;;;;;;8.55;6.53;;;;;;;;;;5052590;28;20037;-62
2024/01/18 13:55:42;;;;;;;8.32;6.65;;;;;;;;;;5053491;28;20033;-62
2024/01/18 13:58:08;;;;;;;8.50;6.00;;;;;;;;;;5060949;28;20025;-63
2024/01/18 14:00:34;;;;;;;7.10;6.40;;;;;;;;;;5063021;28;20378;-63
2024/01/18 14:03:00;;;;;;;7.78;6.10;;;;;;;;;;5042479;28;20036;-63
2024/01/18 14:05:28;;;;;;;7.50;5.80;;;;;;;;;;5034048;28;20041;-63
2024/01/18 14:07:54;;;;;;;5.57;5.05;;;;;;;;;;5033110;28;20022;-63
2024/01/18 14:10:19;;;;;;;7.18;5.50;;;;;;;;;;5033388;28;20417;-63
2024/01/18 14:12:44;;;;;;;5.05;4.55;;;;;;;;;;5034178;28;20029;-63
2024/01/18 14:15:10;;;;;;;6.05;4.50;;;;;;;;;;5052018;28;20075;-62
2024/01/18 14:17:35;;;;;;;4.85;4.20;;;;;;;;;;5053923;28;20035;-62
2024/01/18 14:20:00;;;;;;;6.53;3.88;;;;;;;;;;5054172;28;20370;-63